sensor_id;sensor_type;location;lat;lon;timestamp;temperature;humidity
11826;DHT22;5970;48.094;11.496;2023-10-13T00:01:09;17.30;80.40
11826;DHT22;5970;48.094;11.496;2023-10-13T00:03:38;17.20;78.50
11826;DHT22;5970;48.094;11.496;2023-10-13T00:06:06;17.30;78.30
11826;DHT22;5970;48.094;11.496;2023-10-13T00:08:34;17.30;79.80
11826;DHT22;5970;48.094;11.496;2023-10-13T00:11:03;17.30;79.30
11826;DHT22;5970;48.094;11.496;2023-10-13T00:13:31;17.30;78.10
11826;DHT22;5970;48.094;11.496;2023-10-13T00:16:09;17.30;80.00
11826;DHT22;5970;48.094;11.496;2023-10-13T00:18:37;17.20;80.20
11826;DHT22;5970;48.094;11.496;2023-10-13T00:21:10;17.10;77.50
11826;DHT22;5970;48.094;11.496;2023-10-13T00:23:40;17.10;80.00
11826;DHT22;5970;48.094;11.496;2023-10-13T00:28:51;17.30;78.50
11826;DHT22;5970;48.094;11.496;2023-10-13T00:31:25;17.20;78.90
11826;DHT22;5970;48.094;11.496;2023-10-13T00:34:03;17.30;79.90
11826;DHT22;5970;48.094;11.496;2023-10-13T00:36:40;17.30;79.60
11826;DHT22;5970;48.094;11.496;2023-10-13T00:39:36;17.30;80.30
11826;DHT22;5970;48.094;11.496;2023-10-13T00:42:06;17.20;80.30
11826;DHT22;5970;48.094;11.496;2023-10-13T00:44:34;17.20;79.20
11826;DHT22;5970;48.094;11.496;2023-10-13T00:47:09;17.20;80.40
11826;DHT22;5970;48.094;11.496;2023-10-13T00:49:36;17.20;80.80
11826;DHT22;5970;48.094;11.496;2023-10-13T00:52:06;17.20;81.50
11826;DHT22;5970;48.094;11.496;2023-10-13T00:54:36;17.20;81.10
11826;DHT22;5970;48.094;11.496;2023-10-13T00:57:04;17.20;81.20
11826;DHT22;5970;48.094;11.496;2023-10-13T00:59:53;17.10;80.60
11826;DHT22;5970;48.094;11.496;2023-10-13T01:02:21;17.10;80.20
11826;DHT22;5970;48.094;11.496;2023-10-13T01:05:06;17.10;81.20
11826;DHT22;5970;48.094;11.496;2023-10-13T01:07:37;16.90;80.50
11826;DHT22;5970;48.094;11.496;2023-10-13T01:10:04;16.90;80.50
11826;DHT22;5970;48.094;11.496;2023-10-13T01:12:31;16.80;81.00
11826;DHT22;5970;48.094;11.496;2023-10-13T01:14:58;16.70;81.00
11826;DHT22;5970;48.094;11.496;2023-10-13T01:20:54;16.50;81.60
11826;DHT22;5970;48.094;11.496;2023-10-13T01:23:26;16.40;81.50
11826;DHT22;5970;48.094;11.496;2023-10-13T01:25:55;16.30;82.40
11826;DHT22;5970;48.094;11.496;2023-10-13T01:28:22;16.20;82.20
11826;DHT22;5970;48.094;11.496;2023-10-13T01:30:50;16.20;82.60
11826;DHT22;5970;48.094;11.496;2023-10-13T01:33:18;16.10;82.60
11826;DHT22;5970;48.094;11.496;2023-10-13T01:35:53;16.00;82.90
11826;DHT22;5970;48.094;11.496;2023-10-13T01:38:21;16.00;83.20
11826;DHT22;5970;48.094;11.496;2023-10-13T01:40:48;15.90;83.60
11826;DHT22;5970;48.094;11.496;2023-10-13T01:43:18;15.80;83.70
11826;DHT22;5970;48.094;11.496;2023-10-13T01:45:44;15.70;84.00
11826;DHT22;5970;48.094;11.496;2023-10-13T01:48:14;15.70;84.30
11826;DHT22;5970;48.094;11.496;2023-10-13T01:50:45;15.60;84.50
11826;DHT22;5970;48.094;11.496;2023-10-13T01:53:21;15.60;84.80
11826;DHT22;5970;48.094;11.496;2023-10-13T01:55:49;15.50;85.10
11826;DHT22;5970;48.094;11.496;2023-10-13T01:58:16;15.40;84.80
11826;DHT22;5970;48.094;11.496;2023-10-13T02:00:46;15.40;85.40
11826;DHT22;5970;48.094;11.496;2023-10-13T02:03:14;15.30;85.40
11826;DHT22;5970;48.094;11.496;2023-10-13T02:05:45;15.30;85.90
11826;DHT22;5970;48.094;11.496;2023-10-13T02:08:19;15.20;85.90
11826;DHT22;5970;48.094;11.496;2023-10-13T02:10:53;15.20;86.20
11826;DHT22;5970;48.094;11.496;2023-10-13T02:13:20;15.20;86.40
11826;DHT22;5970;48.094;11.496;2023-10-13T02:15:49;15.20;86.50
11826;DHT22;5970;48.094;11.496;2023-10-13T02:18:18;15.20;87.00
11826;DHT22;5970;48.094;11.496;2023-10-13T02:20:53;15.20;87.10
11826;DHT22;5970;48.094;11.496;2023-10-13T02:23:23;15.20;87.10
11826;DHT22;5970;48.094;11.496;2023-10-13T02:25:59;15.10;87.10
11826;DHT22;5970;48.094;11.496;2023-10-13T02:28:44;15.00;87.20
11826;DHT22;5970;48.094;11.496;2023-10-13T02:31:16;15.00;87.50
11826;DHT22;5970;48.094;11.496;2023-10-13T02:33:44;14.90;87.30
11826;DHT22;5970;48.094;11.496;2023-10-13T02:36:11;14.90;87.90
11826;DHT22;5970;48.094;11.496;2023-10-13T02:38:39;14.70;88.20
11826;DHT22;5970;48.094;11.496;2023-10-13T02:41:12;14.70;88.30
11826;DHT22;5970;48.094;11.496;2023-10-13T02:43:45;14.60;88.30
11826;DHT22;5970;48.094;11.496;2023-10-13T02:46:12;14.50;88.60
11826;DHT22;5970;48.094;11.496;2023-10-13T02:48:42;14.50;89.10
11826;DHT22;5970;48.094;11.496;2023-10-13T02:51:12;14.40;89.00
11826;DHT22;5970;48.094;11.496;2023-10-13T02:53:45;14.40;89.40
11826;DHT22;5970;48.094;11.496;2023-10-13T02:56:15;14.30;89.50
11826;DHT22;5970;48.094;11.496;2023-10-13T02:58:50;14.20;89.70
11826;DHT22;5970;48.094;11.496;2023-10-13T03:01:23;14.10;89.70
11826;DHT22;5970;48.094;11.496;2023-10-13T03:03:56;14.10;89.80
11826;DHT22;5970;48.094;11.496;2023-10-13T03:06:25;14.10;90.10
11826;DHT22;5970;48.094;11.496;2023-10-13T03:09:04;14.00;90.20
11826;DHT22;5970;48.094;11.496;2023-10-13T03:12:00;14.00;90.30
11826;DHT22;5970;48.094;11.496;2023-10-13T03:14:27;13.90;90.40
11826;DHT22;5970;48.094;11.496;2023-10-13T03:17:01;13.80;90.40
11826;DHT22;5970;48.094;11.496;2023-10-13T03:19:33;13.80;90.40
11826;DHT22;5970;48.094;11.496;2023-10-13T03:22:03;13.70;90.50
11826;DHT22;5970;48.094;11.496;2023-10-13T03:24:39;13.70;90.60
11826;DHT22;5970;48.094;11.496;2023-10-13T03:27:18;13.70;90.80
11826;DHT22;5970;48.094;11.496;2023-10-13T03:29:49;13.60;90.90
11826;DHT22;5970;48.094;11.496;2023-10-13T03:32:27;13.60;90.90
11826;DHT22;5970;48.094;11.496;2023-10-13T03:34:57;13.50;91.00
11826;DHT22;5970;48.094;11.496;2023-10-13T03:37:27;13.40;91.00
11826;DHT22;5970;48.094;11.496;2023-10-13T03:40:06;13.40;91.10
11826;DHT22;5970;48.094;11.496;2023-10-13T03:42:54;13.40;91.20
11826;DHT22;5970;48.094;11.496;2023-10-13T03:45:37;13.40;91.30
11826;DHT22;5970;48.094;11.496;2023-10-13T03:48:06;13.30;91.40
11826;DHT22;5970;48.094;11.496;2023-10-13T03:50:37;13.30;91.50
11826;DHT22;5970;48.094;11.496;2023-10-13T03:53:12;13.10;91.40
11826;DHT22;5970;48.094;11.496;2023-10-13T03:55:40;13.20;91.70
11826;DHT22;5970;48.094;11.496;2023-10-13T03:58:15;13.40;94.20
11826;DHT22;5970;48.094;11.496;2023-10-13T04:00:44;13.10;94.90
11826;DHT22;5970;48.094;11.496;2023-10-13T04:05:43;13.10;91.60
11826;DHT22;5970;48.094;11.496;2023-10-13T04:08:27;13.10;91.80
11826;DHT22;5970;48.094;11.496;2023-10-13T04:10:55;13.00;91.70
11826;DHT22;5970;48.094;11.496;2023-10-13T04:13:22;13.00;91.70
11826;DHT22;5970;48.094;11.496;2023-10-13T04:16:08;13.00;91.60
11826;DHT22;5970;48.094;11.496;2023-10-13T04:18:50;13.00;91.70
11826;DHT22;5970;48.094;11.496;2023-10-13T04:21:26;13.00;91.70
11826;DHT22;5970;48.094;11.496;2023-10-13T04:24:08;13.00;91.70
11826;DHT22;5970;48.094;11.496;2023-10-13T04:26:50;13.00;91.70
11826;DHT22;5970;48.094;11.496;2023-10-13T04:29:46;12.90;91.60
11826;DHT22;5970;48.094;11.496;2023-10-13T04:32:37;12.80;91.60
11826;DHT22;5970;48.094;11.496;2023-10-13T04:35:13;12.90;91.60
11826;DHT22;5970;48.094;11.496;2023-10-13T04:37:39;12.90;91.60
11826;DHT22;5970;48.094;11.496;2023-10-13T04:40:27;12.90;91.90
11826;DHT22;5970;48.094;11.496;2023-10-13T04:43:02;13.00;91.50
11826;DHT22;5970;48.094;11.496;2023-10-13T04:45:52;12.90;91.50
11826;DHT22;5970;48.094;11.496;2023-10-13T04:48:21;13.00;91.50
11826;DHT22;5970;48.094;11.496;2023-10-13T04:50:49;13.10;91.60
11826;DHT22;5970;48.094;11.496;2023-10-13T04:53:18;12.80;91.50
11826;DHT22;5970;48.094;11.496;2023-10-13T04:55:57;12.80;91.50
11826;DHT22;5970;48.094;11.496;2023-10-13T04:58:30;12.80;91.50
11826;DHT22;5970;48.094;11.496;2023-10-13T05:01:00;12.70;91.60
11826;DHT22;5970;48.094;11.496;2023-10-13T05:03:45;12.70;91.80
11826;DHT22;5970;48.094;11.496;2023-10-13T05:06:39;12.70;91.70
11826;DHT22;5970;48.094;11.496;2023-10-13T05:09:08;12.60;91.50
11826;DHT22;5970;48.094;11.496;2023-10-13T05:11:54;12.60;91.60
11826;DHT22;5970;48.094;11.496;2023-10-13T05:14:39;12.50;91.60
11826;DHT22;5970;48.094;11.496;2023-10-13T05:17:24;12.60;91.70
11826;DHT22;5970;48.094;11.496;2023-10-13T05:20:10;12.50;91.80
11826;DHT22;5970;48.094;11.496;2023-10-13T05:22:55;12.50;91.90
11826;DHT22;5970;48.094;11.496;2023-10-13T05:25:40;12.50;92.00
11826;DHT22;5970;48.094;11.496;2023-10-13T05:28:25;12.40;92.00
11826;DHT22;5970;48.094;11.496;2023-10-13T05:31:10;12.40;92.20
11826;DHT22;5970;48.094;11.496;2023-10-13T05:33:56;12.40;92.40
11826;DHT22;5970;48.094;11.496;2023-10-13T05:36:41;12.40;92.30
11826;DHT22;5970;48.094;11.496;2023-10-13T05:39:26;12.40;92.20
11826;DHT22;5970;48.094;11.496;2023-10-13T05:42:11;12.50;92.30
11826;DHT22;5970;48.094;11.496;2023-10-13T05:44:56;12.40;92.00
11826;DHT22;5970;48.094;11.496;2023-10-13T05:47:43;12.50;91.40
11826;DHT22;5970;48.094;11.496;2023-10-13T05:50:10;12.60;91.80
11826;DHT22;5970;48.094;11.496;2023-10-13T05:52:46;12.60;91.80
11826;DHT22;5970;48.094;11.496;2023-10-13T05:55:25;12.60;91.80
11826;DHT22;5970;48.094;11.496;2023-10-13T05:58:11;12.60;91.70
11826;DHT22;5970;48.094;11.496;2023-10-13T06:00:57;12.80;91.70
11826;DHT22;5970;48.094;11.496;2023-10-13T06:03:42;12.70;91.60
11826;DHT22;5970;48.094;11.496;2023-10-13T06:06:28;12.70;91.50
11826;DHT22;5970;48.094;11.496;2023-10-13T06:09:13;12.80;91.70
11826;DHT22;5970;48.094;11.496;2023-10-13T06:11:58;12.90;91.20
11826;DHT22;5970;48.094;11.496;2023-10-13T06:14:46;12.90;91.50
11826;DHT22;5970;48.094;11.496;2023-10-13T06:17:32;13.00;90.80
11826;DHT22;5970;48.094;11.496;2023-10-13T06:20:17;13.10;90.00
11826;DHT22;5970;48.094;11.496;2023-10-13T06:23:02;13.30;89.80
11826;DHT22;5970;48.094;11.496;2023-10-13T06:25:51;13.40;88.60
11826;DHT22;5970;48.094;11.496;2023-10-13T06:28:36;13.60;87.50
11826;DHT22;5970;48.094;11.496;2023-10-13T06:31:09;13.70;89.10
11826;DHT22;5970;48.094;11.496;2023-10-13T06:33:54;13.80;88.90
11826;DHT22;5970;48.094;11.496;2023-10-13T06:36:22;13.90;87.20
11826;DHT22;5970;48.094;11.496;2023-10-13T06:38:49;14.10;85.30
11826;DHT22;5970;48.094;11.496;2023-10-13T06:41:22;14.20;87.60
11826;DHT22;5970;48.094;11.496;2023-10-13T06:43:57;14.40;86.00
11826;DHT22;5970;48.094;11.496;2023-10-13T06:46:27;14.50;86.70
11826;DHT22;5970;48.094;11.496;2023-10-13T06:48:55;14.60;87.20
11826;DHT22;5970;48.094;11.496;2023-10-13T06:51:26;14.70;85.60
11826;DHT22;5970;48.094;11.496;2023-10-13T06:53:57;14.90;85.60
11826;DHT22;5970;48.094;11.496;2023-10-13T06:56:24;15.00;84.50
11826;DHT22;5970;48.094;11.496;2023-10-13T06:58:57;15.20;84.80
11826;DHT22;5970;48.094;11.496;2023-10-13T07:01:29;15.30;85.20
11826;DHT22;5970;48.094;11.496;2023-10-13T07:03:55;15.50;83.50
11826;DHT22;5970;48.094;11.496;2023-10-13T07:06:28;15.60;83.50
11826;DHT22;5970;48.094;11.496;2023-10-13T07:08:54;15.80;82.70
11826;DHT22;5970;48.094;11.496;2023-10-13T07:11:29;15.90;81.00
11826;DHT22;5970;48.094;11.496;2023-10-13T07:14:05;16.10;81.50
11826;DHT22;5970;48.094;11.496;2023-10-13T07:17:00;16.30;81.10
11826;DHT22;5970;48.094;11.496;2023-10-13T07:19:25;16.40;80.50
11826;DHT22;5970;48.094;11.496;2023-10-13T07:21:55;16.60;80.10
11826;DHT22;5970;48.094;11.496;2023-10-13T07:24:26;16.70;81.20
11826;DHT22;5970;48.094;11.496;2023-10-13T07:27:00;16.90;78.70
11826;DHT22;5970;48.094;11.496;2023-10-13T07:29:32;17.00;79.00
11826;DHT22;5970;48.094;11.496;2023-10-13T07:32:02;17.10;77.80
11826;DHT22;5970;48.094;11.496;2023-10-13T07:34:39;17.30;77.20
11826;DHT22;5970;48.094;11.496;2023-10-13T07:37:06;17.40;76.70
11826;DHT22;5970;48.094;11.496;2023-10-13T07:39:35;17.60;76.10
11826;DHT22;5970;48.094;11.496;2023-10-13T07:42:05;17.70;76.20
11826;DHT22;5970;48.094;11.496;2023-10-13T07:44:33;17.90;76.10
11826;DHT22;5970;48.094;11.496;2023-10-13T07:47:00;18.00;75.10
11826;DHT22;5970;48.094;11.496;2023-10-13T07:49:31;18.20;74.20
11826;DHT22;5970;48.094;11.496;2023-10-13T07:52:02;18.30;74.00
11826;DHT22;5970;48.094;11.496;2023-10-13T07:54:47;18.50;73.80
11826;DHT22;5970;48.094;11.496;2023-10-13T07:57:16;18.60;73.40
11826;DHT22;5970;48.094;11.496;2023-10-13T07:59:44;18.80;74.70
11826;DHT22;5970;48.094;11.496;2023-10-13T08:02:19;18.90;72.50
11826;DHT22;5970;48.094;11.496;2023-10-13T08:05:14;19.00;72.50
11826;DHT22;5970;48.094;11.496;2023-10-13T08:07:51;19.20;71.20
11826;DHT22;5970;48.094;11.496;2023-10-13T08:10:19;19.40;71.10
11826;DHT22;5970;48.094;11.496;2023-10-13T08:12:51;19.50;70.00
11826;DHT22;5970;48.094;11.496;2023-10-13T08:15:21;19.70;68.80
11826;DHT22;5970;48.094;11.496;2023-10-13T08:17:58;19.80;68.40
11826;DHT22;5970;48.094;11.496;2023-10-13T08:20:26;20.00;68.10
11826;DHT22;5970;48.094;11.496;2023-10-13T08:22:56;20.30;68.00
11826;DHT22;5970;48.094;11.496;2023-10-13T08:25:40;20.60;68.30
11826;DHT22;5970;48.094;11.496;2023-10-13T08:28:39;20.90;67.30
11826;DHT22;5970;48.094;11.496;2023-10-13T08:31:23;21.40;66.20
11826;DHT22;5970;48.094;11.496;2023-10-13T08:33:53;22.20;65.60
11826;DHT22;5970;48.094;11.496;2023-10-13T08:36:33;22.90;62.10
11826;DHT22;5970;48.094;11.496;2023-10-13T08:39:04;23.60;60.70
11826;DHT22;5970;48.094;11.496;2023-10-13T08:41:51;24.30;59.80
11826;DHT22;5970;48.094;11.496;2023-10-13T08:44:43;25.10;58.20
11826;DHT22;5970;48.094;11.496;2023-10-13T08:47:13;25.60;56.10
11826;DHT22;5970;48.094;11.496;2023-10-13T08:49:45;26.10;55.60
11826;DHT22;5970;48.094;11.496;2023-10-13T08:52:19;26.70;53.60
11826;DHT22;5970;48.094;11.496;2023-10-13T08:55:05;27.20;52.50
11826;DHT22;5970;48.094;11.496;2023-10-13T08:57:50;27.80;50.70
11826;DHT22;5970;48.094;11.496;2023-10-13T09:00:29;28.30;49.30
11826;DHT22;5970;48.094;11.496;2023-10-13T09:03:22;28.80;48.60
11826;DHT22;5970;48.094;11.496;2023-10-13T09:05:55;29.40;48.00
11826;DHT22;5970;48.094;11.496;2023-10-13T09:08:28;29.40;47.30
11826;DHT22;5970;48.094;11.496;2023-10-13T09:11:31;29.50;46.10
11826;DHT22;5970;48.094;11.496;2023-10-13T09:14:03;29.40;45.50
11826;DHT22;5970;48.094;11.496;2023-10-13T09:16:40;29.50;45.70
11826;DHT22;5970;48.094;11.496;2023-10-13T09:19:07;29.60;45.90
11826;DHT22;5970;48.094;11.496;2023-10-13T09:21:38;29.70;45.00
11826;DHT22;5970;48.094;11.496;2023-10-13T09:24:08;29.80;45.40
11826;DHT22;5970;48.094;11.496;2023-10-13T09:26:58;30.30;45.80
11826;DHT22;5970;48.094;11.496;2023-10-13T09:29:28;30.80;44.20
11826;DHT22;5970;48.094;11.496;2023-10-13T09:31:59;31.00;43.90
11826;DHT22;5970;48.094;11.496;2023-10-13T09:34:27;31.10;43.50
11826;DHT22;5970;48.094;11.496;2023-10-13T09:36:58;31.20;42.10
11826;DHT22;5970;48.094;11.496;2023-10-13T09:39:25;31.30;42.10
11826;DHT22;5970;48.094;11.496;2023-10-13T09:42:12;31.30;41.70
11826;DHT22;5970;48.094;11.496;2023-10-13T09:44:42;31.40;43.00
11826;DHT22;5970;48.094;11.496;2023-10-13T09:47:17;31.00;41.50
11826;DHT22;5970;48.094;11.496;2023-10-13T09:49:48;30.50;41.70
11826;DHT22;5970;48.094;11.496;2023-10-13T09:52:16;29.70;44.00
11826;DHT22;5970;48.094;11.496;2023-10-13T09:54:51;29.00;44.50
11826;DHT22;5970;48.094;11.496;2023-10-13T09:57:31;28.40;45.20
11826;DHT22;5970;48.094;11.496;2023-10-13T10:00:14;28.00;46.90
11826;DHT22;5970;48.094;11.496;2023-10-13T10:03:01;27.60;47.70
11826;DHT22;5970;48.094;11.496;2023-10-13T10:05:42;27.10;47.60
11826;DHT22;5970;48.094;11.496;2023-10-13T10:08:25;26.70;47.80
11826;DHT22;5970;48.094;11.496;2023-10-13T10:11:00;26.60;48.20
11826;DHT22;5970;48.094;11.496;2023-10-13T10:16:22;26.80;50.50
11826;DHT22;5970;48.094;11.496;2023-10-13T10:18:59;27.50;47.80
11826;DHT22;5970;48.094;11.496;2023-10-13T10:21:35;28.90;46.50
11826;DHT22;5970;48.094;11.496;2023-10-13T10:24:02;30.20;48.00
11826;DHT22;5970;48.094;11.496;2023-10-13T10:26:34;31.60;44.10
11826;DHT22;5970;48.094;11.496;2023-10-13T10:29:10;33.90;41.50
11826;DHT22;5970;48.094;11.496;2023-10-13T10:31:36;33.80;42.80
11826;DHT22;5970;48.094;11.496;2023-10-13T10:34:13;34.80;41.10
11826;DHT22;5970;48.094;11.496;2023-10-13T10:36:54;35.60;38.70
11826;DHT22;5970;48.094;11.496;2023-10-13T10:39:20;36.20;38.30
11826;DHT22;5970;48.094;11.496;2023-10-13T10:42:12;37.00;34.80
11826;DHT22;5970;48.094;11.496;2023-10-13T10:44:42;37.40;34.00
11826;DHT22;5970;48.094;11.496;2023-10-13T10:47:14;37.90;34.90
11826;DHT22;5970;48.094;11.496;2023-10-13T10:50:03;37.60;31.30
11826;DHT22;5970;48.094;11.496;2023-10-13T10:52:53;38.10;32.70
11826;DHT22;5970;48.094;11.496;2023-10-13T10:55:24;38.10;30.10
11826;DHT22;5970;48.094;11.496;2023-10-13T10:57:58;38.50;32.10
11826;DHT22;5970;48.094;11.496;2023-10-13T11:00:25;38.90;30.20
11826;DHT22;5970;48.094;11.496;2023-10-13T11:02:53;39.20;30.50
11826;DHT22;5970;48.094;11.496;2023-10-13T11:05:21;39.50;29.70
11826;DHT22;5970;48.094;11.496;2023-10-13T11:07:48;39.60;29.60
11826;DHT22;5970;48.094;11.496;2023-10-13T11:10:18;39.10;29.00
11826;DHT22;5970;48.094;11.496;2023-10-13T11:12:58;38.70;29.10
11826;DHT22;5970;48.094;11.496;2023-10-13T11:15:42;38.90;29.10
11826;DHT22;5970;48.094;11.496;2023-10-13T11:18:11;38.80;29.10
11826;DHT22;5970;48.094;11.496;2023-10-13T11:20:48;38.40;29.00
11826;DHT22;5970;48.094;11.496;2023-10-13T11:23:21;38.80;28.90
11826;DHT22;5970;48.094;11.496;2023-10-13T11:25:58;39.30;28.30
11826;DHT22;5970;48.094;11.496;2023-10-13T11:28:28;39.70;29.00
11826;DHT22;5970;48.094;11.496;2023-10-13T11:30:55;39.50;28.10
11826;DHT22;5970;48.094;11.496;2023-10-13T11:33:26;39.40;28.10
11826;DHT22;5970;48.094;11.496;2023-10-13T11:35:56;38.80;28.00
11826;DHT22;5970;48.094;11.496;2023-10-13T11:38:24;39.00;29.20
11826;DHT22;5970;48.094;11.496;2023-10-13T11:41:02;39.30;27.90
11826;DHT22;5970;48.094;11.496;2023-10-13T11:43:32;38.60;28.40
11826;DHT22;5970;48.094;11.496;2023-10-13T11:46:25;38.50;28.30
11826;DHT22;5970;48.094;11.496;2023-10-13T11:49:02;39.50;29.00
11826;DHT22;5970;48.094;11.496;2023-10-13T11:51:45;39.40;27.60
11826;DHT22;5970;48.094;11.496;2023-10-13T11:56:38;39.70;26.60
11826;DHT22;5970;48.094;11.496;2023-10-13T11:59:05;40.50;28.10
11826;DHT22;5970;48.094;11.496;2023-10-13T12:01:32;39.80;26.40
11826;DHT22;5970;48.094;11.496;2023-10-13T12:04:18;39.20;26.70
11826;DHT22;5970;48.094;11.496;2023-10-13T12:07:00;38.60;26.60
11826;DHT22;5970;48.094;11.496;2023-10-13T12:09:49;39.00;26.50
11826;DHT22;5970;48.094;11.496;2023-10-13T12:14:48;40.10;27.30
11826;DHT22;5970;48.094;11.496;2023-10-13T12:17:26;40.00;26.90
11826;DHT22;5970;48.094;11.496;2023-10-13T12:19:58;40.10;25.80
11826;DHT22;5970;48.094;11.496;2023-10-13T12:22:25;39.70;26.00
11826;DHT22;5970;48.094;11.496;2023-10-13T12:25:02;39.80;26.60
11826;DHT22;5970;48.094;11.496;2023-10-13T12:27:40;40.10;26.90
11826;DHT22;5970;48.094;11.496;2023-10-13T12:30:15;40.50;25.90
11826;DHT22;5970;48.094;11.496;2023-10-13T12:33:02;39.90;25.40
11826;DHT22;5970;48.094;11.496;2023-10-13T12:35:36;39.90;27.00
11826;DHT22;5970;48.094;11.496;2023-10-13T12:38:25;39.40;27.00
11826;DHT22;5970;48.094;11.496;2023-10-13T12:41:17;39.10;26.40
11826;DHT22;5970;48.094;11.496;2023-10-13T12:44:03;37.30;26.50
11826;DHT22;5970;48.094;11.496;2023-10-13T12:46:49;36.10;28.80
11826;DHT22;5970;48.094;11.496;2023-10-13T12:49:35;34.90;29.80
11826;DHT22;5970;48.094;11.496;2023-10-13T12:52:05;34.20;31.60
11826;DHT22;5970;48.094;11.496;2023-10-13T12:54:42;33.70;31.00
11826;DHT22;5970;48.094;11.496;2023-10-13T12:57:14;32.80;29.90
11826;DHT22;5970;48.094;11.496;2023-10-13T12:59:41;32.50;33.20
11826;DHT22;5970;48.094;11.496;2023-10-13T13:02:07;32.40;32.60
11826;DHT22;5970;48.094;11.496;2023-10-13T13:04:41;32.50;31.90
11826;DHT22;5970;48.094;11.496;2023-10-13T13:07:11;32.70;33.80
11826;DHT22;5970;48.094;11.496;2023-10-13T13:09:40;32.50;31.10
11826;DHT22;5970;48.094;11.496;2023-10-13T13:12:07;32.40;32.90
11826;DHT22;5970;48.094;11.496;2023-10-13T13:14:34;32.30;33.90
11826;DHT22;5970;48.094;11.496;2023-10-13T13:17:01;32.10;32.50
11826;DHT22;5970;48.094;11.496;2023-10-13T13:19:35;31.80;33.50
11826;DHT22;5970;48.094;11.496;2023-10-13T13:22:08;31.50;32.10
11826;DHT22;5970;48.094;11.496;2023-10-13T13:24:43;30.90;31.70
11826;DHT22;5970;48.094;11.496;2023-10-13T13:27:13;30.60;32.90
11826;DHT22;5970;48.094;11.496;2023-10-13T13:29:43;30.50;33.60
11826;DHT22;5970;48.094;11.496;2023-10-13T13:32:10;30.40;33.10
11826;DHT22;5970;48.094;11.496;2023-10-13T13:35:07;30.60;33.30
11826;DHT22;5970;48.094;11.496;2023-10-13T13:37:35;31.50;33.90
11826;DHT22;5970;48.094;11.496;2023-10-13T13:40:04;32.30;35.50
11826;DHT22;5970;48.094;11.496;2023-10-13T13:42:41;32.90;32.00
11826;DHT22;5970;48.094;11.496;2023-10-13T13:45:13;33.50;30.10
11826;DHT22;5970;48.094;11.496;2023-10-13T13:47:51;34.00;31.10
11826;DHT22;5970;48.094;11.496;2023-10-13T13:50:24;34.20;31.60
11826;DHT22;5970;48.094;11.496;2023-10-13T13:52:55;34.40;35.60
11826;DHT22;5970;48.094;11.496;2023-10-13T13:55:23;34.70;33.40
11826;DHT22;5970;48.094;11.496;2023-10-13T13:57:50;34.70;33.40
11826;DHT22;5970;48.094;11.496;2023-10-13T14:00:19;34.30;32.70
11826;DHT22;5970;48.094;11.496;2023-10-13T14:03:06;34.50;34.10
11826;DHT22;5970;48.094;11.496;2023-10-13T14:05:50;34.60;34.30
11826;DHT22;5970;48.094;11.496;2023-10-13T14:08:17;33.60;29.90
11826;DHT22;5970;48.094;11.496;2023-10-13T14:10:43;33.40;35.40
11826;DHT22;5970;48.094;11.496;2023-10-13T14:13:30;32.90;36.50
11826;DHT22;5970;48.094;11.496;2023-10-13T14:16:16;32.00;33.00
11826;DHT22;5970;48.094;11.496;2023-10-13T14:18:49;31.70;32.00
11826;DHT22;5970;48.094;11.496;2023-10-13T14:21:16;32.00;36.90
11826;DHT22;5970;48.094;11.496;2023-10-13T14:23:44;32.40;37.90
11826;DHT22;5970;48.094;11.496;2023-10-13T14:26:12;32.70;37.10
11826;DHT22;5970;48.094;11.496;2023-10-13T14:28:39;32.30;34.20
11826;DHT22;5970;48.094;11.496;2023-10-13T14:31:17;32.70;35.20
11826;DHT22;5970;48.094;11.496;2023-10-13T14:33:45;33.20;37.60
11826;DHT22;5970;48.094;11.496;2023-10-13T14:36:13;33.20;34.30
11826;DHT22;5970;48.094;11.496;2023-10-13T14:38:42;33.20;34.60
11826;DHT22;5970;48.094;11.496;2023-10-13T14:41:11;33.20;36.50
11826;DHT22;5970;48.094;11.496;2023-10-13T14:43:37;32.90;36.00
11826;DHT22;5970;48.094;11.496;2023-10-13T14:46:07;32.40;35.30
11826;DHT22;5970;48.094;11.496;2023-10-13T14:48:34;31.70;36.60
11826;DHT22;5970;48.094;11.496;2023-10-13T14:51:08;30.90;36.80
11826;DHT22;5970;48.094;11.496;2023-10-13T14:53:35;30.30;35.80
11826;DHT22;5970;48.094;11.496;2023-10-13T14:56:02;29.80;42.30
11826;DHT22;5970;48.094;11.496;2023-10-13T14:58:31;29.10;36.50
11826;DHT22;5970;48.094;11.496;2023-10-13T15:00:58;28.60;36.40
11826;DHT22;5970;48.094;11.496;2023-10-13T15:03:27;28.30;42.70
11826;DHT22;5970;48.094;11.496;2023-10-13T15:05:55;27.90;39.40
11826;DHT22;5970;48.094;11.496;2023-10-13T15:08:22;27.70;43.90
11826;DHT22;5970;48.094;11.496;2023-10-13T15:10:48;27.50;45.80
11826;DHT22;5970;48.094;11.496;2023-10-13T15:13:15;27.20;46.60
11826;DHT22;5970;48.094;11.496;2023-10-13T15:15:42;27.00;48.70
11826;DHT22;5970;48.094;11.496;2023-10-13T15:18:09;26.70;48.80
11826;DHT22;5970;48.094;11.496;2023-10-13T15:20:40;26.40;48.70
11826;DHT22;5970;48.094;11.496;2023-10-13T15:23:10;26.10;48.90
11826;DHT22;5970;48.094;11.496;2023-10-13T15:25:41;25.90;49.10
11826;DHT22;5970;48.094;11.496;2023-10-13T15:28:15;25.60;49.80
11826;DHT22;5970;48.094;11.496;2023-10-13T15:30:47;25.40;52.00
11826;DHT22;5970;48.094;11.496;2023-10-13T15:33:23;25.20;51.80
11826;DHT22;5970;48.094;11.496;2023-10-13T15:35:51;24.90;51.90
11826;DHT22;5970;48.094;11.496;2023-10-13T15:38:18;24.70;53.60
11826;DHT22;5970;48.094;11.496;2023-10-13T15:40:47;24.50;55.80
11826;DHT22;5970;48.094;11.496;2023-10-13T15:43:21;24.20;56.10
11826;DHT22;5970;48.094;11.496;2023-10-13T15:45:48;24.00;56.80
11826;DHT22;5970;48.094;11.496;2023-10-13T15:48:15;23.80;57.10
11826;DHT22;5970;48.094;11.496;2023-10-13T15:50:45;23.60;58.30
11826;DHT22;5970;48.094;11.496;2023-10-13T15:53:12;23.40;58.80
11826;DHT22;5970;48.094;11.496;2023-10-13T15:55:39;23.20;59.50
11826;DHT22;5970;48.094;11.496;2023-10-13T15:58:07;23.00;60.10
11826;DHT22;5970;48.094;11.496;2023-10-13T16:00:37;22.80;60.80
11826;DHT22;5970;48.094;11.496;2023-10-13T16:03:04;22.70;62.20
11826;DHT22;5970;48.094;11.496;2023-10-13T16:05:38;22.50;62.70
11826;DHT22;5970;48.094;11.496;2023-10-13T16:08:06;22.30;63.40
11826;DHT22;5970;48.094;11.496;2023-10-13T16:10:38;22.10;65.20
11826;DHT22;5970;48.094;11.496;2023-10-13T16:13:05;22.00;64.60
11826;DHT22;5970;48.094;11.496;2023-10-13T16:15:36;21.80;64.30
11826;DHT22;5970;48.094;11.496;2023-10-13T16:18:09;21.60;65.30
11826;DHT22;5970;48.094;11.496;2023-10-13T16:20:36;21.40;66.20
11826;DHT22;5970;48.094;11.496;2023-10-13T16:23:03;21.30;66.50
11826;DHT22;5970;48.094;11.496;2023-10-13T16:25:31;21.10;65.90
11826;DHT22;5970;48.094;11.496;2023-10-13T16:27:58;21.00;66.80
11826;DHT22;5970;48.094;11.496;2023-10-13T16:30:26;20.90;67.70